createdAt,value
2022-11-30T00:00:04.522Z,1022.90
2022-11-30T00:10:01.002Z,1022.88
2022-11-30T00:15:01.297Z,1022.88
2022-11-30T00:30:01.138Z,1022.93
2022-11-30T00:40:01.325Z,1022.92
2022-11-30T00:45:01.392Z,1022.92
2022-11-30T01:00:02.901Z,1022.86
2022-11-30T01:15:01.370Z,1022.82
2022-11-30T01:30:01.142Z,1022.98
2022-11-30T01:45:01.299Z,1022.98
2022-11-30T02:00:03.192Z,1023.14
2022-11-30T02:15:01.048Z,1023.18
2022-11-30T02:30:01.260Z,1023.19
2022-11-30T02:45:07.372Z,1023.26
2022-11-30T03:00:03.816Z,1023.30
2022-11-30T03:15:01.157Z,1023.21
2022-11-30T03:30:01.126Z,1023.27
2022-11-30T03:35:01.492Z,1023.27
2022-11-30T03:45:01.142Z,1023.29
2022-11-30T04:00:02.768Z,1023.39
2022-11-30T04:15:01.019Z,1023.40
2022-11-30T04:25:01.375Z,1023.49
2022-11-30T04:30:01.765Z,1023.61
2022-11-30T04:45:01.262Z,1023.63
2022-11-30T05:00:02.966Z,1023.70
2022-11-30T05:10:16.010Z,1023.90
2022-11-30T05:15:01.384Z,1023.90
2022-11-30T05:30:01.979Z,1023.90
2022-11-30T05:45:01.184Z,1023.98
2022-11-30T05:55:01.480Z,1024.13
2022-11-30T06:00:02.540Z,1024.23
2022-11-30T06:05:01.124Z,1024.23
2022-11-30T06:15:01.608Z,1024.22
2022-11-30T06:30:01.668Z,1024.38
2022-11-30T06:35:00.986Z,1024.38
2022-11-30T06:45:01.121Z,1024.50
2022-11-30T07:00:00.972Z,1024.55
2022-11-30T07:15:02.026Z,1024.55
2022-11-30T07:20:01.225Z,1024.65
2022-11-30T07:25:01.137Z,1024.65
2022-11-30T07:30:00.882Z,1024.76
2022-11-30T07:45:01.201Z,1024.69
2022-11-30T08:00:00.896Z,1024.77
2022-11-30T08:45:02.651Z,1025.08
2022-11-30T09:00:03.621Z,1025.20
2022-11-30T09:25:02.444Z,1025.44
2022-11-30T09:30:01.226Z,1025.44
2022-11-30T09:45:01.644Z,1025.57
2022-11-30T10:00:02.737Z,1025.47
2022-11-30T10:15:01.468Z,1025.48
2022-11-30T10:25:11.596Z,1025.43
2022-11-30T10:30:01.325Z,1025.42
2022-11-30T10:45:01.543Z,1025.42
2022-11-30T11:00:03.935Z,1025.31
2022-11-30T11:15:01.539Z,1025.40
2022-11-30T11:30:01.310Z,1025.38
2022-11-30T11:45:01.281Z,1025.45
2022-11-30T12:00:03.172Z,1025.38
2022-11-30T12:05:01.304Z,1025.38
2022-11-30T12:15:01.305Z,1025.48
2022-11-30T12:30:02.351Z,1025.48
2022-11-30T12:45:01.374Z,1025.55
2022-11-30T13:00:02.964Z,1025.58
2022-11-30T13:15:01.840Z,1025.60
2022-11-30T13:30:01.382Z,1025.74
2022-11-30T13:45:01.272Z,1025.76
2022-11-30T14:00:03.037Z,1025.71
2022-11-30T14:15:01.136Z,1025.70
2022-11-30T14:30:01.433Z,1025.85
2022-11-30T14:45:01.319Z,1025.91
2022-11-30T15:00:02.595Z,1026.02
2022-11-30T15:35:01.307Z,1026.06
2022-11-30T15:45:01.213Z,1026.09
2022-11-30T15:50:01.141Z,1026.14
2022-11-30T16:00:03.000Z,1026.09
2022-11-30T16:05:15.734Z,1026.09
2022-11-30T16:15:01.247Z,1026.13
2022-11-30T16:30:01.212Z,1026.29
2022-11-30T16:45:01.085Z,1026.33
2022-11-30T17:00:03.242Z,1026.50
2022-11-30T17:15:01.168Z,1026.56
2022-11-30T17:25:01.298Z,1026.63
2022-11-30T17:30:00.844Z,1026.61
2022-11-30T17:45:02.140Z,1026.65
2022-11-30T18:00:02.837Z,1026.82
2022-11-30T18:15:01.405Z,1026.96
2022-11-30T18:30:08.810Z,1027.11
2022-11-30T18:45:01.478Z,1027.16
2022-11-30T19:00:03.581Z,1027.29
2022-11-30T19:10:01.032Z,1027.30
2022-11-30T19:15:01.031Z,1027.30
2022-11-30T19:30:01.571Z,1027.40
2022-11-30T19:45:01.005Z,1027.42
2022-11-30T20:00:02.952Z,1027.41
2022-11-30T20:15:00.956Z,1027.36
2022-11-30T20:20:01.261Z,1027.41
2022-11-30T20:30:01.152Z,1027.46
2022-11-30T20:40:01.105Z,1027.55
2022-11-30T20:45:01.427Z,1027.55
2022-11-30T21:00:12.803Z,1027.54
2022-11-30T21:15:01.280Z,1027.59
2022-11-30T21:20:01.344Z,1027.55
2022-11-30T21:30:00.992Z,1027.62
2022-11-30T21:45:01.089Z,1027.70
2022-11-30T22:00:02.931Z,1027.63
2022-11-30T22:05:01.150Z,1027.63
2022-11-30T22:15:01.130Z,1027.71
2022-11-30T22:30:01.176Z,1027.78
2022-11-30T22:40:01.127Z,1027.76
2022-11-30T22:45:02.015Z,1027.76
2022-11-30T22:50:02.217Z,1027.85
2022-11-30T23:00:03.331Z,1027.86
2022-11-30T23:15:01.398Z,1027.90
2022-11-30T23:30:01.961Z,1027.90
2022-11-30T23:45:06.099Z,1027.90
